< < Back
Terminal Aerodrome Forecast


Current Version              Previous Versions:   1  2  3  4  5  6  7  8  9  

Terminal Aerodrome Forecast

541
FTUS44 KOHX 281700
TAFCSV
TAF
KCSV 281724Z 2818/0118 15009KT P6SM OVC100
     FM010400 16003KT P6SM OVC050
     FM010700 VRB03KT 5SM BR OVC015
     FM011000 18004KT 4SM BR OVC007
     FM011400 20004KT 3SM -RA BR OVC004=

Latest METAR

827
SAUS70 KWBC 010800 RRN
MTRCSV
METAR KCSV 010753Z AUTO 19008KT 10SM OVC020 06/M01 A3039 RMK AO2 SLP294
T00561011


USA.gov is the U.S. government's official web portal to all federal, state and local government web resources and services.